LGKOLGRP

Guest
Details From LGKO - KOS
To LGRP - DIAGORAS
Flight Number -
Tags generated
Created
Modified
Stats Distance 54 nm / 100 km
Max Altitude 1,400 ft / 427 m
Waypoints 3
Social Downloads 10
Likes 0
Share VATSIM

Download

Looking for another format? Having issues loading an existing format? Contact us
Advertisement - Login to hide

Notes

Basic altitude profile: - Ascent Rate: 2500ft/min - Ascent Speed: 250kts - Cruise Altitude: 35000ft - Cruise Speed: 420kts - Descent Rate: 1500ft/min - Descent Speed: 250kts Options: - Use NATs: yes - Use PACOTS: yes - Use low airways: yes - Use high airways: yes

Route

LGKO BANRO LGRP

ID Type Via Altitude Latitude Longitude Leg Dist Tot Dist Heading (true) Name
O LGKO APT - 0 ft / 0 m 36.79440˚ 27.09076˚ - 0 nm - KOS
BANRO FIX - 1,400 ft / 427 m 36.49472˚ 27.99528˚ 47 nm 47 nm 112° / 113° -
O LGRP APT - 0 ft / 0 m 36.40542˚ 28.08619˚ 6 nm 54 nm 141° / 141° DIAGORAS

Altitude Profile

Advertisement - Login to hide

LGKO

Details ICAO LGKO (KGS)
Name KOS
Region Greece
Timezone Europe/Athens (UTC+2.0)
Stats Elevation 412 ft / 126 m (AMSL)
Location 36.794403° 27.090764°
Runways 1
Magnetic Variation 4.724° E

METAR

LGKO 182250Z 25010KT 9999 FEW018TCU SCT025 12/08 Q1018

Decode

TAF

TAF LGKO 181700Z 1818/1918 25015KT 9999 FEW018 PROB40 TEMPO 1818/1903 5000 RA SCT010 BKN018 PROB30 TEMPO 1818/1824 4000 TSRA SCT008 FEW018CB BKN018 PROB40 TEMPO 1818/1824 25017G27KT BECMG 1904/1906 34013KT

Decode

Departure Runways

ID Width Length Bearing (true) Bearing (mag) Surface Threshold Offset Overrun Length
14 148 ft / 45 m 7,923 ft / 2,415 m 148.29° 143.57° Asphalt 0 ft / 0 m 240 ft / 73 m
32 148 ft / 45 m 7,923 ft / 2,415 m 328.30° 323.58° Asphalt 0 ft / 0 m 205 ft / 62 m

LGRP

Details ICAO LGRP (RHO)
Name DIAGORAS
Region Greece
Timezone Europe/Athens (UTC+2.0)
Stats Elevation 17 ft / 5 m (AMSL)
Location 36.405420° 28.086193°
Runways 1
Magnetic Variation 4.781° E

METAR

LGRP 182250Z 19004KT 9999 FEW015 14/09 Q1017 NOSIG

Decode

TAF

TAF LGRP 181700Z 1818/1918 21010KT 9999 FEW015 PROB30 TEMPO 1818/1906 5000 RA SCT012 BKN020 PROB30 TEMPO 1818/1824 4000 TSRA SCT010 FEW018CB BKN020

Decode

Destination Runways

ID Width Length Bearing (true) Bearing (mag) Surface Threshold Offset Overrun Length
07 148 ft / 45 m 10,830 ft / 3,301 m 69.97° 65.19° Asphalt 0 ft / 0 m 0 ft / 0 m
25 148 ft / 45 m 10,830 ft / 3,301 m 249.99° 245.21° Asphalt 0 ft / 0 m 0 ft / 0 m

Approach Navaids

Runway Type Ident Frequency Range Bearing (true) Bearing (mag) Slope Elevation
25 Localiser IRDS 110.30 MHz 18 nm / 33 km 250.45° 245.66° - 17 ft / 5 m (AMSL)
25 Glidescope IRDS 110.30 MHz 10 nm / 19 km 249.98° 245.20° 3.00° 17 ft / 5 m (AMSL)

Popular Alternatives